sensor_id;sensor_type;location;lat;lon;timestamp;pressure;altitude;pressure_sealevel;temperature;humidity
44988;BME280;35735;52.226;21.254;2022-08-19T00:03:01;100019.81;;;21.57;100.00
44988;BME280;35735;52.226;21.254;2022-08-19T00:08:03;100009.84;;;21.54;100.00
44988;BME280;35735;52.226;21.254;2022-08-19T00:13:04;100008.41;;;21.47;100.00
44988;BME280;35735;52.226;21.254;2022-08-19T00:18:04;99999.00;;;21.34;100.00
44988;BME280;35735;52.226;21.254;2022-08-19T00:23:05;100007.03;;;21.19;100.00
44988;BME280;35735;52.226;21.254;2022-08-19T00:28:06;100010.56;;;21.21;100.00
44988;BME280;35735;52.226;21.254;2022-08-19T00:33:06;100003.19;;;21.23;100.00
44988;BME280;35735;52.226;21.254;2022-08-19T00:38:07;100008.97;;;21.17;100.00
44988;BME280;35735;52.226;21.254;2022-08-19T00:43:10;100010.91;;;21.15;100.00
44988;BME280;35735;52.226;21.254;2022-08-19T00:48:11;100013.00;;;21.10;100.00
44988;BME280;35735;52.226;21.254;2022-08-19T00:53:14;100022.81;;;20.97;100.00
44988;BME280;35735;52.226;21.254;2022-08-19T00:58:21;100022.50;;;20.84;100.00
44988;BME280;35735;52.226;21.254;2022-08-19T01:03:23;100017.91;;;20.84;100.00
44988;BME280;35735;52.226;21.254;2022-08-19T01:08:24;100013.03;;;20.72;100.00
44988;BME280;35735;52.226;21.254;2022-08-19T01:13:29;100013.84;;;20.74;100.00
44988;BME280;35735;52.226;21.254;2022-08-19T01:18:36;100014.97;;;20.70;100.00
44988;BME280;35735;52.226;21.254;2022-08-19T01:23:38;100015.50;;;20.58;100.00
44988;BME280;35735;52.226;21.254;2022-08-19T01:28:40;100019.38;;;20.53;100.00
44988;BME280;35735;52.226;21.254;2022-08-19T01:33:42;100026.00;;;20.48;100.00
44988;BME280;35735;52.226;21.254;2022-08-19T01:38:43;100020.78;;;20.43;100.00
44988;BME280;35735;52.226;21.254;2022-08-19T01:43:44;100015.97;;;20.48;100.00
44988;BME280;35735;52.226;21.254;2022-08-19T01:48:46;100023.34;;;20.46;100.00
44988;BME280;35735;52.226;21.254;2022-08-19T01:53:48;100023.34;;;20.46;100.00
44988;BME280;35735;52.226;21.254;2022-08-19T01:58:54;100025.28;;;20.44;100.00
44988;BME280;35735;52.226;21.254;2022-08-19T02:03:58;100027.00;;;20.47;100.00
44988;BME280;35735;52.226;21.254;2022-08-19T02:08:59;100021.72;;;20.42;100.00
44988;BME280;35735;52.226;21.254;2022-08-19T02:14:02;100023.50;;;20.43;100.00
44988;BME280;35735;52.226;21.254;2022-08-19T02:19:04;100010.75;;;20.42;100.00
44988;BME280;35735;52.226;21.254;2022-08-19T02:24:05;99999.41;;;20.31;100.00
44988;BME280;35735;52.226;21.254;2022-08-19T02:29:05;100005.19;;;20.25;100.00
44988;BME280;35735;52.226;21.254;2022-08-19T02:34:06;99992.66;;;20.19;100.00
44988;BME280;35735;52.226;21.254;2022-08-19T02:39:06;99986.22;;;20.20;100.00
44988;BME280;35735;52.226;21.254;2022-08-19T02:44:07;99998.94;;;20.21;100.00
44988;BME280;35735;52.226;21.254;2022-08-19T02:49:08;99994.59;;;20.17;100.00
44988;BME280;35735;52.226;21.254;2022-08-19T02:54:10;99998.19;;;20.17;100.00
44988;BME280;35735;52.226;21.254;2022-08-19T02:59:11;100000.66;;;20.24;100.00
44988;BME280;35735;52.226;21.254;2022-08-19T03:04:14;100001.69;;;20.21;100.00
44988;BME280;35735;52.226;21.254;2022-08-19T03:09:17;100002.72;;;20.18;100.00
44988;BME280;35735;52.226;21.254;2022-08-19T03:14:18;100005.41;;;20.20;100.00
44988;BME280;35735;52.226;21.254;2022-08-19T03:19:19;100005.19;;;20.25;100.00
44988;BME280;35735;52.226;21.254;2022-08-19T03:24:20;100002.59;;;20.22;100.00
44988;BME280;35735;52.226;21.254;2022-08-19T03:29:21;100003.41;;;20.24;100.00
44988;BME280;35735;52.226;21.254;2022-08-19T03:34:28;99996.28;;;20.20;100.00
44988;BME280;35735;52.226;21.254;2022-08-19T03:39:29;99995.47;;;20.17;100.00
44988;BME280;35735;52.226;21.254;2022-08-19T03:44:30;99999.00;;;20.20;100.00
44988;BME280;35735;52.226;21.254;2022-08-19T03:49:32;99995.13;;;20.25;100.00
44988;BME280;35735;52.226;21.254;2022-08-19T03:54:33;99998.47;;;20.32;100.00
44988;BME280;35735;52.226;21.254;2022-08-19T03:59:36;100009.13;;;20.38;100.00
44988;BME280;35735;52.226;21.254;2022-08-19T04:04:41;100015.88;;;20.50;100.00
44988;BME280;35735;52.226;21.254;2022-08-19T04:09:43;100016.31;;;20.60;100.00
44988;BME280;35735;52.226;21.254;2022-08-19T04:14:43;100018.50;;;20.72;100.00
44988;BME280;35735;52.226;21.254;2022-08-19T04:19:44;100027.84;;;20.87;100.00
44988;BME280;35735;52.226;21.254;2022-08-19T04:24:44;100019.06;;;20.98;100.00
44988;BME280;35735;52.226;21.254;2022-08-19T04:29:45;100025.22;;;21.03;100.00
44988;BME280;35735;52.226;21.254;2022-08-19T04:34:45;100011.72;;;21.17;100.00
44988;BME280;35735;52.226;21.254;2022-08-19T04:39:46;100017.66;;;21.44;100.00
44988;BME280;35735;52.226;21.254;2022-08-19T04:44:46;100013.75;;;21.68;100.00
44988;BME280;35735;52.226;21.254;2022-08-19T04:49:47;100017.78;;;21.95;100.00
44988;BME280;35735;52.226;21.254;2022-08-19T04:54:50;100022.66;;;22.24;100.00
44988;BME280;35735;52.226;21.254;2022-08-19T04:59:55;100015.31;;;22.57;100.00
44988;BME280;35735;52.226;21.254;2022-08-19T05:04:57;100011.62;;;22.90;100.00
44988;BME280;35735;52.226;21.254;2022-08-19T05:09:58;100017.06;;;23.08;100.00
44988;BME280;35735;52.226;21.254;2022-08-19T05:14:59;100009.16;;;23.18;100.00
44988;BME280;35735;52.226;21.254;2022-08-19T05:20:00;100015.09;;;23.26;100.00
44988;BME280;35735;52.226;21.254;2022-08-19T05:25:07;100026.38;;;23.37;100.00
44988;BME280;35735;52.226;21.254;2022-08-19T05:30:10;100015.66;;;23.47;100.00
44988;BME280;35735;52.226;21.254;2022-08-19T05:35:11;100021.91;;;23.51;100.00
44988;BME280;35735;52.226;21.254;2022-08-19T05:40:12;100026.84;;;23.60;100.00
44988;BME280;35735;52.226;21.254;2022-08-19T05:45:12;100037.37;;;23.83;100.00
44988;BME280;35735;52.226;21.254;2022-08-19T05:50:13;100037.94;;;24.33;100.00
44988;BME280;35735;52.226;21.254;2022-08-19T05:55:14;100054.06;;;24.84;100.00
44988;BME280;35735;52.226;21.254;2022-08-19T06:00:15;100070.34;;;25.30;100.00
44988;BME280;35735;52.226;21.254;2022-08-19T06:05:16;100060.72;;;25.78;100.00
44988;BME280;35735;52.226;21.254;2022-08-19T06:10:16;100057.94;;;26.05;100.00
44988;BME280;35735;52.226;21.254;2022-08-19T06:15:17;100053.97;;;26.22;100.00
44988;BME280;35735;52.226;21.254;2022-08-19T06:20:18;100061.72;;;26.42;100.00
44988;BME280;35735;52.226;21.254;2022-08-19T06:25:18;100049.53;;;26.58;99.98
44988;BME280;35735;52.226;21.254;2022-08-19T06:30:19;100044.66;;;26.49;99.23
44988;BME280;35735;52.226;21.254;2022-08-19T06:35:19;100056.94;;;26.44;98.97
44988;BME280;35735;52.226;21.254;2022-08-19T06:40:20;100055.94;;;26.33;98.82
44988;BME280;35735;52.226;21.254;2022-08-19T06:45:24;100047.53;;;26.09;99.00
44988;BME280;35735;52.226;21.254;2022-08-19T06:50:25;100056.47;;;25.99;99.93
44988;BME280;35735;52.226;21.254;2022-08-19T06:55:25;100056.84;;;26.33;99.86
44988;BME280;35735;52.226;21.254;2022-08-19T07:00:26;100057.97;;;26.56;98.72
44988;BME280;35735;52.226;21.254;2022-08-19T07:05:26;100054.44;;;26.80;98.66
44988;BME280;35735;52.226;21.254;2022-08-19T07:10:27;100060.19;;;27.27;97.96
44988;BME280;35735;52.226;21.254;2022-08-19T07:15:27;100064.28;;;27.34;97.45
44988;BME280;35735;52.226;21.254;2022-08-19T07:20:28;100064.44;;;27.57;95.81
44988;BME280;35735;52.226;21.254;2022-08-19T07:25:29;100061.37;;;27.60;96.38
44988;BME280;35735;52.226;21.254;2022-08-19T07:30:30;100057.19;;;27.78;95.24
44988;BME280;35735;52.226;21.254;2022-08-19T07:35:30;100069.69;;;27.97;94.45
44988;BME280;35735;52.226;21.254;2022-08-19T07:40:31;100064.94;;;28.21;94.51
44988;BME280;35735;52.226;21.254;2022-08-19T07:45:32;100053.50;;;28.37;92.92
44988;BME280;35735;52.226;21.254;2022-08-19T07:50:32;100055.03;;;28.53;92.65
44988;BME280;35735;52.226;21.254;2022-08-19T07:55:33;100054.47;;;28.60;91.86
44988;BME280;35735;52.226;21.254;2022-08-19T08:00:33;100062.38;;;28.54;91.77
44988;BME280;35735;52.226;21.254;2022-08-19T08:05:34;100055.09;;;28.64;91.58
44988;BME280;35735;52.226;21.254;2022-08-19T08:10:35;100057.47;;;28.91;91.93
44988;BME280;35735;52.226;21.254;2022-08-19T08:15:37;100060.63;;;29.09;90.18
44988;BME280;35735;52.226;21.254;2022-08-19T08:20:38;100068.47;;;29.15;89.97
44988;BME280;35735;52.226;21.254;2022-08-19T08:25:39;100054.56;;;29.15;90.66
44988;BME280;35735;52.226;21.254;2022-08-19T08:30:39;100059.00;;;29.18;89.15
44988;BME280;35735;52.226;21.254;2022-08-19T08:35:40;100055.94;;;29.10;89.16
44988;BME280;35735;52.226;21.254;2022-08-19T08:41:16;100055.69;;;29.13;89.47
44988;BME280;35735;52.226;21.254;2022-08-19T08:51:44;100067.37;;;29.62;88.43
44988;BME280;35735;52.226;21.254;2022-08-19T08:56:49;100059.16;;;29.60;87.73
44988;BME280;35735;52.226;21.254;2022-08-19T09:01:50;100060.91;;;29.72;87.69
44988;BME280;35735;52.226;21.254;2022-08-19T09:12:35;100073.59;;;30.19;86.52
44988;BME280;35735;52.226;21.254;2022-08-19T09:17:42;100078.66;;;30.46;86.75
44988;BME280;35735;52.226;21.254;2022-08-19T09:22:42;100080.41;;;30.68;84.19
44988;BME280;35735;52.226;21.254;2022-08-19T09:27:43;100075.91;;;30.77;84.95
44988;BME280;35735;52.226;21.254;2022-08-19T09:32:44;100071.97;;;30.79;83.08
44988;BME280;35735;52.226;21.254;2022-08-19T09:37:45;100072.88;;;30.59;82.21
44988;BME280;35735;52.226;21.254;2022-08-19T09:42:46;100072.59;;;30.62;82.88
44988;BME280;35735;52.226;21.254;2022-08-19T09:47:51;100077.22;;;30.73;82.15
44988;BME280;35735;52.226;21.254;2022-08-19T09:52:52;100085.91;;;30.79;81.90
44988;BME280;35735;52.226;21.254;2022-08-19T09:57:53;100078.41;;;31.01;81.65
44988;BME280;35735;52.226;21.254;2022-08-19T10:02:54;100079.50;;;31.19;80.72
44988;BME280;35735;52.226;21.254;2022-08-19T10:07:54;100083.88;;;31.22;77.49
44988;BME280;35735;52.226;21.254;2022-08-19T10:12:55;100089.66;;;31.30;77.14
44988;BME280;35735;52.226;21.254;2022-08-19T10:17:55;100076.44;;;31.32;75.42
44988;BME280;35735;52.226;21.254;2022-08-19T10:22:56;100077.69;;;31.49;76.11
44988;BME280;35735;52.226;21.254;2022-08-19T10:27:56;100068.94;;;31.73;75.71
44988;BME280;35735;52.226;21.254;2022-08-19T10:32:57;100067.44;;;31.79;74.51
44988;BME280;35735;52.226;21.254;2022-08-19T10:37:58;100054.69;;;31.76;73.91
44988;BME280;35735;52.226;21.254;2022-08-19T10:42:58;100057.03;;;31.71;74.65
44988;BME280;35735;52.226;21.254;2022-08-19T10:47:59;100047.78;;;31.81;73.20
44988;BME280;35735;52.226;21.254;2022-08-19T10:53:04;100044.25;;;31.88;71.56
44988;BME280;35735;52.226;21.254;2022-08-19T10:58:15;100058.78;;;31.82;70.46
44988;BME280;35735;52.226;21.254;2022-08-19T11:03:17;100056.91;;;31.83;71.14
44988;BME280;35735;52.226;21.254;2022-08-19T11:08:17;100053.38;;;32.00;70.50
44988;BME280;35735;52.226;21.254;2022-08-19T11:13:18;100050.16;;;32.15;70.84
44988;BME280;35735;52.226;21.254;2022-08-19T11:18:18;100048.25;;;32.15;70.26
44988;BME280;35735;52.226;21.254;2022-08-19T11:23:19;100038.09;;;32.14;70.01
44988;BME280;35735;52.226;21.254;2022-08-19T11:28:19;100027.37;;;32.19;70.93
44988;BME280;35735;52.226;21.254;2022-08-19T11:33:20;100023.97;;;32.25;68.63
44988;BME280;35735;52.226;21.254;2022-08-19T11:38:20;100012.66;;;32.37;68.84
44988;BME280;35735;52.226;21.254;2022-08-19T11:43:21;100005.53;;;32.52;68.38
44988;BME280;35735;52.226;21.254;2022-08-19T11:48:22;100011.25;;;32.60;67.10
44988;BME280;35735;52.226;21.254;2022-08-19T11:53:24;100007.91;;;32.47;67.02
44988;BME280;35735;52.226;21.254;2022-08-19T11:58:24;100014.78;;;32.53;67.09
44988;BME280;35735;52.226;21.254;2022-08-19T12:03:25;100014.66;;;32.44;67.02
44988;BME280;35735;52.226;21.254;2022-08-19T12:08:26;100006.00;;;32.38;66.51
44988;BME280;35735;52.226;21.254;2022-08-19T12:13:28;99985.34;;;32.21;66.09
44988;BME280;35735;52.226;21.254;2022-08-19T12:18:29;99981.22;;;32.25;65.86
44988;BME280;35735;52.226;21.254;2022-08-19T12:23:30;99974.59;;;32.26;65.22
44988;BME280;35735;52.226;21.254;2022-08-19T12:28:31;99966.66;;;32.31;64.56
44988;BME280;35735;52.226;21.254;2022-08-19T12:33:32;99963.09;;;32.39;65.11
44988;BME280;35735;52.226;21.254;2022-08-19T12:38:33;99958.22;;;32.50;64.29
44988;BME280;35735;52.226;21.254;2022-08-19T12:43:34;99959.41;;;32.48;64.49
44988;BME280;35735;52.226;21.254;2022-08-19T12:48:35;99964.84;;;32.49;63.41
44988;BME280;35735;52.226;21.254;2022-08-19T12:53:36;99953.22;;;32.44;63.80
44988;BME280;35735;52.226;21.254;2022-08-19T12:58:36;99939.31;;;32.35;62.37
44988;BME280;35735;52.226;21.254;2022-08-19T13:03:37;99940.19;;;32.35;62.84
44988;BME280;35735;52.226;21.254;2022-08-19T13:08:38;99933.63;;;32.26;62.82
44988;BME280;35735;52.226;21.254;2022-08-19T13:13:40;99932.00;;;32.24;63.30
44988;BME280;35735;52.226;21.254;2022-08-19T13:18:45;99930.69;;;32.28;62.73
44988;BME280;35735;52.226;21.254;2022-08-19T13:23:47;99932.87;;;32.24;63.08
44988;BME280;35735;52.226;21.254;2022-08-19T13:28:47;99930.69;;;32.28;63.35
44988;BME280;35735;52.226;21.254;2022-08-19T13:33:48;99939.94;;;32.19;61.52
44988;BME280;35735;52.226;21.254;2022-08-19T13:38:48;99931.87;;;32.06;62.25
44988;BME280;35735;52.226;21.254;2022-08-19T13:43:49;99927.06;;;31.98;61.93
44988;BME280;35735;52.226;21.254;2022-08-19T13:48:49;99914.72;;;31.91;62.86
44988;BME280;35735;52.226;21.254;2022-08-19T13:53:50;99915.63;;;31.91;63.66
44988;BME280;35735;52.226;21.254;2022-08-19T13:58:50;99924.44;;;31.87;63.60
44988;BME280;35735;52.226;21.254;2022-08-19T14:03:51;99917.13;;;31.76;63.49
44988;BME280;35735;52.226;21.254;2022-08-19T14:08:51;99920.94;;;31.75;63.78
44988;BME280;35735;52.226;21.254;2022-08-19T14:13:52;99921.78;;;31.75;64.31
44988;BME280;35735;52.226;21.254;2022-08-19T14:18:52;99932.53;;;31.70;64.02
44988;BME280;35735;52.226;21.254;2022-08-19T14:23:53;99932.66;;;31.69;64.23
44988;BME280;35735;52.226;21.254;2022-08-19T14:28:54;99934.28;;;31.71;64.81
44988;BME280;35735;52.226;21.254;2022-08-19T14:33:54;99932.09;;;31.75;64.70
44988;BME280;35735;52.226;21.254;2022-08-19T14:38:55;99943.53;;;31.72;63.20
44988;BME280;35735;52.226;21.254;2022-08-19T14:43:56;99938.84;;;31.63;63.75
44988;BME280;35735;52.226;21.254;2022-08-19T14:48:57;99949.84;;;31.64;64.27
44988;BME280;35735;52.226;21.254;2022-08-19T14:53:57;99936.50;;;31.58;63.42
44988;BME280;35735;52.226;21.254;2022-08-19T14:58:58;99938.84;;;31.53;64.26
44988;BME280;35735;52.226;21.254;2022-08-19T15:03:58;99935.88;;;31.45;63.50
44988;BME280;35735;52.226;21.254;2022-08-19T15:08:59;99938.25;;;31.39;63.56
44988;BME280;35735;52.226;21.254;2022-08-19T15:14:00;99939.69;;;31.34;63.71
44988;BME280;35735;52.226;21.254;2022-08-19T15:19:01;99946.44;;;31.31;63.37
44988;BME280;35735;52.226;21.254;2022-08-19T15:24:02;99954.66;;;31.23;63.46
44988;BME280;35735;52.226;21.254;2022-08-19T15:29:03;99948.22;;;31.23;63.87
44988;BME280;35735;52.226;21.254;2022-08-19T15:34:04;99935.56;;;31.18;63.57
44988;BME280;35735;52.226;21.254;2022-08-19T15:39:05;99938.78;;;31.14;64.44
44988;BME280;35735;52.226;21.254;2022-08-19T15:44:09;99934.41;;;31.11;63.91
44988;BME280;35735;52.226;21.254;2022-08-19T15:49:12;99929.09;;;31.08;64.24
44988;BME280;35735;52.226;21.254;2022-08-19T15:54:17;99931.16;;;31.06;64.59
44988;BME280;35735;52.226;21.254;2022-08-19T15:59:18;99913.84;;;31.02;64.93
44988;BME280;35735;52.226;21.254;2022-08-19T16:04:19;99915.28;;;30.97;65.50
44988;BME280;35735;52.226;21.254;2022-08-19T16:09:22;99905.56;;;30.81;66.18
44988;BME280;35735;52.226;21.254;2022-08-19T16:14:24;99914.44;;;30.65;66.57
44988;BME280;35735;52.226;21.254;2022-08-19T16:19:25;99913.09;;;30.50;67.41
44988;BME280;35735;52.226;21.254;2022-08-19T16:24:27;99916.59;;;30.42;68.26
44988;BME280;35735;52.226;21.254;2022-08-19T16:29:27;99921.53;;;30.39;68.76
44988;BME280;35735;52.226;21.254;2022-08-19T16:34:29;99920.16;;;30.33;68.99
44988;BME280;35735;52.226;21.254;2022-08-19T16:39:29;99900.63;;;30.23;69.10
44988;BME280;35735;52.226;21.254;2022-08-19T16:44:30;99902.63;;;30.11;69.48
44988;BME280;35735;52.226;21.254;2022-08-19T16:49:31;99900.38;;;29.96;70.27
44988;BME280;35735;52.226;21.254;2022-08-19T16:54:32;99911.69;;;29.83;70.94
44988;BME280;35735;52.226;21.254;2022-08-19T16:59:33;99909.22;;;29.68;71.62
44988;BME280;35735;52.226;21.254;2022-08-19T17:04:34;99902.09;;;29.54;72.30
44988;BME280;35735;52.226;21.254;2022-08-19T17:09:35;99902.72;;;29.37;72.93
44988;BME280;35735;52.226;21.254;2022-08-19T17:14:36;99904.91;;;29.22;73.63
44988;BME280;35735;52.226;21.254;2022-08-19T17:19:38;99907.97;;;29.08;74.25
44988;BME280;35735;52.226;21.254;2022-08-19T17:24:39;99920.62;;;29.00;74.68
44988;BME280;35735;52.226;21.254;2022-08-19T17:29:40;99911.31;;;28.90;75.15
44988;BME280;35735;52.226;21.254;2022-08-19T17:34:43;99908.56;;;28.79;75.69
44988;BME280;35735;52.226;21.254;2022-08-19T17:39:44;99910.47;;;28.67;76.33
44988;BME280;35735;52.226;21.254;2022-08-19T17:44:44;99911.09;;;28.59;76.71
44988;BME280;35735;52.226;21.254;2022-08-19T17:49:45;99921.44;;;28.46;77.22
44988;BME280;35735;52.226;21.254;2022-08-19T17:54:46;99931.03;;;28.31;77.73
44988;BME280;35735;52.226;21.254;2022-08-19T17:59:46;99934.41;;;28.23;78.14
44988;BME280;35735;52.226;21.254;2022-08-19T18:04:47;99945.13;;;28.16;78.47
44988;BME280;35735;52.226;21.254;2022-08-19T18:09:48;99947.63;;;28.08;78.89
44988;BME280;35735;52.226;21.254;2022-08-19T18:14:49;99950.41;;;27.97;79.21
44988;BME280;35735;52.226;21.254;2022-08-19T18:19:50;99952.88;;;27.88;79.74
44988;BME280;35735;52.226;21.254;2022-08-19T18:24:51;99963.94;;;27.77;79.88
44988;BME280;35735;52.226;21.254;2022-08-19T18:29:53;99978.41;;;27.69;80.04
44988;BME280;35735;52.226;21.254;2022-08-19T18:34:53;99984.81;;;27.59;80.06
44988;BME280;35735;52.226;21.254;2022-08-19T18:39:54;99988.28;;;27.49;80.21
44988;BME280;35735;52.226;21.254;2022-08-19T18:44:55;99976.78;;;27.43;80.39
44988;BME280;35735;52.226;21.254;2022-08-19T18:49:55;99977.13;;;27.38;80.53
44988;BME280;35735;52.226;21.254;2022-08-19T18:54:56;99982.41;;;27.30;80.44
44988;BME280;35735;52.226;21.254;2022-08-19T18:59:56;99978.00;;;27.14;80.75
44988;BME280;35735;52.226;21.254;2022-08-19T19:04:57;99974.38;;;27.01;80.83
44988;BME280;35735;52.226;21.254;2022-08-19T19:09:57;99967.31;;;26.97;80.99
44988;BME280;35735;52.226;21.254;2022-08-19T19:14:58;99954.97;;;26.90;80.91
44988;BME280;35735;52.226;21.254;2022-08-19T19:19:58;99941.72;;;26.69;81.11
44988;BME280;35735;52.226;21.254;2022-08-19T19:24:59;99942.97;;;26.39;81.62
44988;BME280;35735;52.226;21.254;2022-08-19T19:29:59;99940.78;;;26.19;82.07
44988;BME280;35735;52.226;21.254;2022-08-19T19:35:00;99953.50;;;26.09;82.45
44988;BME280;35735;52.226;21.254;2022-08-19T19:40:01;99956.37;;;26.07;82.62
44988;BME280;35735;52.226;21.254;2022-08-19T19:45:02;99955.06;;;26.00;82.73
44988;BME280;35735;52.226;21.254;2022-08-19T19:50:03;99961.69;;;25.97;82.76
44988;BME280;35735;52.226;21.254;2022-08-19T19:55:04;99963.50;;;25.84;82.92
44988;BME280;35735;52.226;21.254;2022-08-19T20:00:06;99979.34;;;25.82;83.08
44988;BME280;35735;52.226;21.254;2022-08-19T20:05:08;99976.88;;;25.77;83.24
44988;BME280;35735;52.226;21.254;2022-08-19T20:10:10;99984.63;;;25.72;83.53
44988;BME280;35735;52.226;21.254;2022-08-19T20:15:11;99982.97;;;25.69;83.81
44988;BME280;35735;52.226;21.254;2022-08-19T20:20:14;99987.59;;;25.69;83.91
44988;BME280;35735;52.226;21.254;2022-08-19T20:25:18;99997.22;;;25.63;84.08
44988;BME280;35735;52.226;21.254;2022-08-19T20:30:20;99997.62;;;25.57;84.40
44988;BME280;35735;52.226;21.254;2022-08-19T20:35:21;99986.56;;;25.44;84.77
44988;BME280;35735;52.226;21.254;2022-08-19T20:40:22;99985.41;;;25.34;85.29
44988;BME280;35735;52.226;21.254;2022-08-19T20:45:23;99994.91;;;25.30;85.48
44988;BME280;35735;52.226;21.254;2022-08-19T20:50:24;100006.31;;;25.24;85.82
44988;BME280;35735;52.226;21.254;2022-08-19T20:55:26;100025.84;;;25.21;86.13
44988;BME280;35735;52.226;21.254;2022-08-19T21:00:26;100018.69;;;25.18;86.33
44988;BME280;35735;52.226;21.254;2022-08-19T21:05:27;100012.56;;;25.13;86.55
44988;BME280;35735;52.226;21.254;2022-08-19T21:10:31;100013.97;;;25.06;86.90
44988;BME280;35735;52.226;21.254;2022-08-19T21:15:31;100009.75;;;25.00;87.13
44988;BME280;35735;52.226;21.254;2022-08-19T21:20:32;100011.06;;;24.94;87.44
44988;BME280;35735;52.226;21.254;2022-08-19T21:25:33;100015.19;;;24.87;87.67
44988;BME280;35735;52.226;21.254;2022-08-19T21:30:34;100007.91;;;24.72;88.21
44988;BME280;35735;52.226;21.254;2022-08-19T21:35:34;100006.37;;;24.68;88.57
44988;BME280;35735;52.226;21.254;2022-08-19T21:40:35;100000.84;;;24.68;88.68
44988;BME280;35735;52.226;21.254;2022-08-19T21:45:36;99996.50;;;24.64;88.93
44988;BME280;35735;52.226;21.254;2022-08-19T21:50:36;99989.78;;;24.53;89.13
44988;BME280;35735;52.226;21.254;2022-08-19T21:55:37;99991.75;;;24.51;89.34
44988;BME280;35735;52.226;21.254;2022-08-19T22:00:38;100001.19;;;24.47;89.57
44988;BME280;35735;52.226;21.254;2022-08-19T22:05:38;99985.75;;;24.45;89.70
44988;BME280;35735;52.226;21.254;2022-08-19T22:10:39;99979.38;;;24.44;89.81
44988;BME280;35735;52.226;21.254;2022-08-19T22:15:40;99972.84;;;24.45;89.86
44988;BME280;35735;52.226;21.254;2022-08-19T22:20:40;99976.59;;;24.44;90.06
44988;BME280;35735;52.226;21.254;2022-08-19T22:25:43;99968.53;;;24.41;90.02
44988;BME280;35735;52.226;21.254;2022-08-19T22:30:45;99958.94;;;24.32;90.24
44988;BME280;35735;52.226;21.254;2022-08-19T22:35:46;99955.59;;;24.27;90.49
44988;BME280;35735;52.226;21.254;2022-08-19T22:40:49;99966.38;;;24.17;90.81
44988;BME280;35735;52.226;21.254;2022-08-19T22:45:53;99969.41;;;24.13;91.10
44988;BME280;35735;52.226;21.254;2022-08-19T22:50:56;99968.31;;;24.15;91.27
44988;BME280;35735;52.226;21.254;2022-08-19T22:55:57;99984.16;;;24.12;91.39
44988;BME280;35735;52.226;21.254;2022-08-19T23:00:58;99979.84;;;24.08;91.68
44988;BME280;35735;52.226;21.254;2022-08-19T23:05:59;99992.53;;;24.10;91.75
44988;BME280;35735;52.226;21.254;2022-08-19T23:11:00;99999.31;;;24.19;91.75
44988;BME280;35735;52.226;21.254;2022-08-19T23:16:00;99997.88;;;24.28;91.75
44988;BME280;35735;52.226;21.254;2022-08-19T23:21:01;100005.72;;;24.34;91.86
44988;BME280;35735;52.226;21.254;2022-08-19T23:26:02;100002.69;;;24.38;91.88
44988;BME280;35735;52.226;21.254;2022-08-19T23:31:03;100001.44;;;24.44;91.78
44988;BME280;35735;52.226;21.254;2022-08-19T23:36:08;100007.13;;;24.41;91.69
44988;BME280;35735;52.226;21.254;2022-08-19T23:41:11;100005.53;;;24.37;91.84
44988;BME280;35735;52.226;21.254;2022-08-19T23:46:14;100013.03;;;24.35;91.84
44988;BME280;35735;52.226;21.254;2022-08-19T23:51:18;100008.00;;;24.41;92.01
44988;BME280;35735;52.226;21.254;2022-08-19T23:56:18;100006.94;;;24.44;91.97
